Pagrindinis puslapis
METAR-TAF:

METAR-TAF

Oro uostai :

Fort Lauderdale Executive Airport

Fort Loderdeilas, Florida, Jungtinės Amerikos Valstijos

platuma: 26-12-00N, ilguma: 080-11-00W, Aukštis: 4 m

Dabartinis oras

Ataskaita buvo paskelbta 46 minutes, ne 16:53 UTC
Vėjas 3 kt nuo kintamojo kryptimis
Temperatūra 25°C
Drėgmė 50%
Slėgis 1021 hPa
Matomumas: 16.1 km
Mažai debesys ne aukštis 2800 ft

METAR: KFXE 071653Z VRB03KT 10SM FEW028 25/14 A3014 RMK AO2 SLP208 T02500144

Laikas: 12:39 (17:39 UTC)

Prognozė

Ataskaita buvo paskelbta 2 valandos ir 37 minutes, ne 15:02 UTC
Prognozė galioja nuo 07 metu 15 UTC su 08 metu 12 UTC
Vėjas 3 kt nuo kintamojo kryptimis
Matomumas: 10 km
Giedras dangus
Nuo 07 metu 1600 UTC
Vėjas 8 kt iš Rytų/Šiaurės Rytų
Matomumas: 10 km
Giedras dangus
Nuo 08 metu 0000 UTC
Vėjas 3 kt nuo kintamojo kryptimis
Matomumas: 10 km
Giedras dangus

TAF: KFXE 071502Z 0715/0812 VRB03KT P6SM SKC FM071600 07008KT P6SM SKC FM080000 VRB03KT P6SM SKC

Orai ataskaitas ir orų prognozės (METAR, TAF).

turimą stotys yra geltonos ir raudonos taškus žemėlapyje.

Perkelti pele per norėdami pamatyti stoties vardą.

Tada spustelėkite, norėdami matyti oro stebėjimo ir prognozės.

Norėdami pakeisti žemėlapį: spustelėkite ant žalios mygtukų su juodo kryžiaus žemyn,; žalią mygtuką su brūkšneliu, jei norite nutolinti; arba žalių rodyklių gretimoms žemėlapius.


METAR-TAF: